createdAt,value
2023-01-17T00:02:02.825Z,22.42
2023-01-17T00:04:50.069Z,18.65
2023-01-17T00:07:39.032Z,21.45
2023-01-17T00:10:10.670Z,22.25
2023-01-17T00:12:38.176Z,21.67
2023-01-17T00:15:06.845Z,21.23
2023-01-17T00:17:34.029Z,25.70
2023-01-17T00:20:23.050Z,22.63
2023-01-17T00:23:10.169Z,25.05
2023-01-17T00:25:59.293Z,27.70
2023-01-17T00:28:27.636Z,29.60
2023-01-17T00:30:54.740Z,32.22
2023-01-17T00:33:23.356Z,32.47
2023-01-17T00:35:52.074Z,26.70
2023-01-17T00:38:22.770Z,29.45
2023-01-17T00:40:50.704Z,26.02
2023-01-17T00:43:43.482Z,29.83
2023-01-17T00:46:31.286Z,32.15
2023-01-17T00:49:18.487Z,29.50
2023-01-17T00:52:05.552Z,31.85
2023-01-17T00:54:52.764Z,30.08
2023-01-17T00:57:39.939Z,28.75
2023-01-17T01:00:27.900Z,32.20
2023-01-17T01:03:14.961Z,31.00
2023-01-17T01:06:02.010Z,31.02
2023-01-17T01:08:49.864Z,33.22
2023-01-17T01:11:40.070Z,31.58
2023-01-17T01:14:29.980Z,34.45
2023-01-17T01:17:31.939Z,34.15
2023-01-17T01:20:19.557Z,32.53
2023-01-17T01:23:07.796Z,29.15
2023-01-17T01:25:56.427Z,30.90
2023-01-17T01:28:43.691Z,31.77
2023-01-17T01:33:48.807Z,28.42
2023-01-17T01:36:16.597Z,28.08
2023-01-17T01:38:44.084Z,31.65
2023-01-17T01:41:11.203Z,28.25
2023-01-17T01:43:48.203Z,27.23
2023-01-17T01:46:22.104Z,30.83
2023-01-17T01:48:55.469Z,27.23
2023-01-17T01:51:28.179Z,30.55
2023-01-17T01:54:01.533Z,27.70
2023-01-17T01:56:31.426Z,27.70
2023-01-17T01:59:03.263Z,37.15
2023-01-17T02:01:31.650Z,28.15
2023-01-17T02:03:59.272Z,27.92
2023-01-17T02:06:32.559Z,30.27
2023-01-17T02:09:07.258Z,27.38
2023-01-17T02:11:38.130Z,26.88
2023-01-17T02:14:05.865Z,26.35
2023-01-17T02:17:01.763Z,27.17
2023-01-17T02:19:48.892Z,26.27
2023-01-17T02:22:37.375Z,27.35
2023-01-17T02:25:15.859Z,26.25
2023-01-17T02:28:13.730Z,28.23
2023-01-17T02:30:46.170Z,26.85
2023-01-17T02:33:39.473Z,27.98
2023-01-17T02:36:13.361Z,24.38
2023-01-17T02:38:46.567Z,19.15
2023-01-17T02:41:22.023Z,26.42
2023-01-17T02:43:51.679Z,25.20
2023-01-17T02:46:18.935Z,26.55
2023-01-17T02:48:47.887Z,26.80
2023-01-17T02:51:22.615Z,28.38
2023-01-17T02:54:10.816Z,31.15
2023-01-17T02:56:53.216Z,25.02
2023-01-17T02:59:26.721Z,27.42
2023-01-17T03:02:01.411Z,30.38
2023-01-17T03:04:38.470Z,27.52
2023-01-17T03:07:16.451Z,27.50
2023-01-17T03:09:46.899Z,28.20
2023-01-17T03:12:14.373Z,28.50
2023-01-17T03:14:41.565Z,26.88
2023-01-17T03:17:09.209Z,28.42
2023-01-17T03:19:36.390Z,27.55
2023-01-17T03:22:03.762Z,26.92
2023-01-17T03:24:31.056Z,27.90
2023-01-17T03:26:58.725Z,25.83
2023-01-17T03:29:25.899Z,26.40
2023-01-17T03:31:53.180Z,27.15
2023-01-17T03:34:20.357Z,27.63
2023-01-17T03:36:47.655Z,27.23
2023-01-17T03:39:14.776Z,28.40
2023-01-17T03:41:42.310Z,29.33
2023-01-17T03:44:09.566Z,28.02
2023-01-17T03:46:37.009Z,28.00
2023-01-17T03:49:04.213Z,27.00
2023-01-17T03:51:31.545Z,29.33
2023-01-17T03:53:58.762Z,30.20
2023-01-17T03:56:26.090Z,28.08
2023-01-17T03:58:53.789Z,26.08
2023-01-17T04:01:21.113Z,25.08
2023-01-17T04:03:48.851Z,26.23
2023-01-17T04:06:16.776Z,26.80
2023-01-17T04:08:44.104Z,28.83
2023-01-17T04:11:11.380Z,25.10
2023-01-17T04:13:38.686Z,28.73
2023-01-17T04:16:06.307Z,31.63
2023-01-17T04:18:33.523Z,29.40
2023-01-17T04:21:00.639Z,27.35
2023-01-17T04:23:27.917Z,31.20
2023-01-17T04:25:55.098Z,34.58
2023-01-17T04:28:22.231Z,33.58
2023-01-17T04:30:49.546Z,33.83
2023-01-17T04:33:16.708Z,32.45
2023-01-17T04:35:43.894Z,33.92
2023-01-17T04:38:11.465Z,35.17
2023-01-17T04:40:38.803Z,36.20
2023-01-17T04:43:06.201Z,36.90
2023-01-17T04:45:33.404Z,38.45
2023-01-17T04:48:08.495Z,38.50
2023-01-17T04:50:35.731Z,38.63
2023-01-17T04:53:02.929Z,37.63
2023-01-17T04:55:30.136Z,37.83
2023-01-17T04:57:57.388Z,43.25
2023-01-17T05:00:24.501Z,38.38
2023-01-17T05:02:52.283Z,38.67
2023-01-17T05:05:19.700Z,40.70
2023-01-17T05:07:54.732Z,41.95
2023-01-17T05:10:22.467Z,41.08
2023-01-17T05:12:59.227Z,39.50
2023-01-17T05:15:27.152Z,40.97
2023-01-17T05:17:55.240Z,38.47
2023-01-17T05:20:26.735Z,39.28
2023-01-17T05:22:56.640Z,38.30
2023-01-17T05:25:26.606Z,40.25
2023-01-17T05:27:54.102Z,39.78
2023-01-17T05:30:22.266Z,43.47
2023-01-17T05:33:15.283Z,40.72
2023-01-17T05:35:42.595Z,39.22
2023-01-17T05:38:09.812Z,37.53
2023-01-17T05:40:37.447Z,31.23
2023-01-17T05:43:05.078Z,35.97
2023-01-17T05:45:34.390Z,35.80
2023-01-17T05:48:02.669Z,40.05
2023-01-17T05:50:33.892Z,38.50
2023-01-17T05:53:08.268Z,38.45
2023-01-17T05:55:36.691Z,39.65
2023-01-17T05:58:04.913Z,38.15
2023-01-17T06:00:32.947Z,38.30
2023-01-17T06:03:01.387Z,39.25
2023-01-17T06:05:30.115Z,35.50
2023-01-17T06:07:58.539Z,35.85
2023-01-17T06:10:27.292Z,36.38
2023-01-17T06:13:05.118Z,37.65
2023-01-17T06:15:33.609Z,36.42
2023-01-17T06:18:10.514Z,36.92
2023-01-17T06:20:39.974Z,35.95
2023-01-17T06:23:10.818Z,35.97
2023-01-17T06:25:44.160Z,37.45
2023-01-17T06:28:15.866Z,27.48
2023-01-17T06:30:45.658Z,35.58
2023-01-17T06:33:16.802Z,38.97
2023-01-17T06:35:50.557Z,41.45
2023-01-17T06:38:19.633Z,42.33
2023-01-17T06:40:49.019Z,41.88
2023-01-17T06:43:18.596Z,41.63
2023-01-17T06:45:48.693Z,43.95
2023-01-17T06:48:18.896Z,47.22
2023-01-17T06:50:49.043Z,45.42
2023-01-17T06:53:16.504Z,45.45
2023-01-17T06:55:45.830Z,45.42
2023-01-17T06:58:15.267Z,51.45
2023-01-17T07:00:45.291Z,46.63
2023-01-17T07:03:23.647Z,50.08
2023-01-17T07:05:53.114Z,46.05
2023-01-17T07:08:22.472Z,38.53
2023-01-17T07:10:51.296Z,39.13
2023-01-17T07:13:19.917Z,37.30
2023-01-17T07:15:47.645Z,36.75
2023-01-17T07:18:21.000Z,34.75
2023-01-17T07:20:51.271Z,45.67
2023-01-17T07:23:22.157Z,37.60
2023-01-17T07:25:56.615Z,29.02
2023-01-17T07:28:25.591Z,34.85
2023-01-17T07:30:54.924Z,32.67
2023-01-17T07:33:23.832Z,29.33
2023-01-17T07:35:54.251Z,25.00
2023-01-17T07:38:22.608Z,24.77
2023-01-17T07:40:52.126Z,23.60
2023-01-17T07:43:20.643Z,21.65
2023-01-17T07:45:52.352Z,19.95
2023-01-17T07:48:22.082Z,19.38
2023-01-17T07:50:55.836Z,20.23
2023-01-17T07:53:24.605Z,14.50
2023-01-17T07:55:53.611Z,18.85
2023-01-17T07:58:23.033Z,21.58
2023-01-17T08:00:51.992Z,19.25
2023-01-17T08:03:21.659Z,18.98
2023-01-17T08:05:58.748Z,20.30
2023-01-17T08:08:28.741Z,20.20
2023-01-17T08:10:58.140Z,20.92
2023-01-17T08:13:29.090Z,21.08
2023-01-17T08:16:03.117Z,22.83
2023-01-17T08:18:33.157Z,22.77
2023-01-17T08:21:03.698Z,21.83
2023-01-17T08:23:34.010Z,21.45
2023-01-17T08:26:04.595Z,21.23
2023-01-17T08:28:33.149Z,21.70
2023-01-17T08:31:11.221Z,21.75
2023-01-17T08:33:41.370Z,28.00
2023-01-17T08:36:12.883Z,21.88
2023-01-17T08:38:42.466Z,20.92
2023-01-17T08:41:11.234Z,20.30
2023-01-17T08:43:40.417Z,20.88
2023-01-17T08:46:07.950Z,24.08
2023-01-17T08:48:35.994Z,20.40
2023-01-17T08:51:04.679Z,22.95
2023-01-17T08:53:34.045Z,19.50
2023-01-17T08:56:02.762Z,22.08
2023-01-17T08:58:31.480Z,21.20
2023-01-17T09:01:04.900Z,22.77
2023-01-17T09:03:35.342Z,35.80
2023-01-17T09:06:11.066Z,23.23
2023-01-17T09:08:39.498Z,28.30
2023-01-17T09:11:10.530Z,30.95
2023-01-17T09:13:41.780Z,29.20
2023-01-17T09:16:11.500Z,27.20
2023-01-17T09:18:39.959Z,20.15
2023-01-17T09:21:18.533Z,24.30
2023-01-17T09:23:48.021Z,30.85
2023-01-17T09:26:32.087Z,35.00
2023-01-17T09:28:59.970Z,15.02
2023-01-17T09:31:28.782Z,19.88
2023-01-17T09:33:58.977Z,19.73
2023-01-17T09:36:30.130Z,19.95
2023-01-17T09:38:59.216Z,17.33
2023-01-17T09:41:32.063Z,19.15
2023-01-17T09:44:03.933Z,17.27
2023-01-17T09:46:40.937Z,17.45
2023-01-17T09:49:15.979Z,16.90
2023-01-17T09:51:45.900Z,18.67
2023-01-17T09:54:23.981Z,18.85
2023-01-17T09:57:02.003Z,20.08
2023-01-17T10:00:03.277Z,17.77
2023-01-17T10:02:56.013Z,17.10
2023-01-17T10:05:54.846Z,19.13
2023-01-17T10:08:44.690Z,19.35
2023-01-17T10:11:37.390Z,18.77
2023-01-17T10:14:24.470Z,17.88
2023-01-17T10:17:16.504Z,18.65
2023-01-17T10:19:53.350Z,20.00
2023-01-17T10:22:31.220Z,21.73
2023-01-17T10:25:25.659Z,19.60
2023-01-17T10:28:04.781Z,15.00
2023-01-17T10:30:39.245Z,20.60
2023-01-17T10:33:16.541Z,20.40
2023-01-17T10:35:57.117Z,23.98
2023-01-17T10:38:31.912Z,19.80
2023-01-17T10:41:04.730Z,18.88
2023-01-17T10:43:51.752Z,20.20
2023-01-17T10:46:28.596Z,18.25
2023-01-17T10:48:56.646Z,19.13
2023-01-17T10:51:43.939Z,18.23
2023-01-17T10:54:36.413Z,18.98
2023-01-17T10:57:03.911Z,20.25
2023-01-17T10:59:34.411Z,18.35
2023-01-17T11:02:07.593Z,18.73
2023-01-17T11:04:36.984Z,17.75
2023-01-17T11:07:17.043Z,17.08
2023-01-17T11:09:46.605Z,18.40
2023-01-17T11:12:35.329Z,21.17
2023-01-17T11:15:21.673Z,17.08
2023-01-17T11:17:53.270Z,17.52
2023-01-17T11:20:28.178Z,18.63
2023-01-17T11:23:16.327Z,16.02
2023-01-17T11:25:49.566Z,16.77
2023-01-17T11:28:23.281Z,17.00
2023-01-17T11:30:54.803Z,13.03
2023-01-17T11:33:59.487Z,18.40
2023-01-17T11:36:29.317Z,18.05
2023-01-17T11:39:05.535Z,18.23
2023-01-17T11:41:36.792Z,16.02
2023-01-17T11:44:21.107Z,16.40
2023-01-17T11:46:48.862Z,18.27
2023-01-17T11:49:26.001Z,17.80
2023-01-17T11:51:56.328Z,18.25
2023-01-17T11:54:26.435Z,21.38
2023-01-17T11:57:02.263Z,18.83
2023-01-17T11:59:37.472Z,19.05
2023-01-17T12:02:38.176Z,18.77
2023-01-17T12:05:45.120Z,18.02
2023-01-17T12:08:51.394Z,19.10
2023-01-17T12:11:29.070Z,21.63
2023-01-17T12:14:07.622Z,25.23
2023-01-17T12:17:11.622Z,25.13
2023-01-17T12:20:01.695Z,28.67
2023-01-17T12:22:47.687Z,28.77
2023-01-17T12:25:45.249Z,31.45
2023-01-17T12:28:37.254Z,31.80
2023-01-17T12:31:44.354Z,29.73
2023-01-17T12:34:26.459Z,36.10
2023-01-17T12:37:02.219Z,37.03
2023-01-17T12:39:37.339Z,37.90
2023-01-17T12:42:09.023Z,36.22
2023-01-17T12:44:46.657Z,33.38
2023-01-17T12:47:16.091Z,31.75
2023-01-17T12:49:54.076Z,33.33
2023-01-17T12:52:42.600Z,34.50
2023-01-17T12:55:19.641Z,37.97
2023-01-17T12:57:56.404Z,32.28
2023-01-17T13:00:25.635Z,30.60
2023-01-17T13:03:16.951Z,38.92
2023-01-17T13:05:47.079Z,42.35
2023-01-17T13:08:34.545Z,41.28
2023-01-17T13:11:23.400Z,47.75
2023-01-17T13:13:52.353Z,35.80
2023-01-17T13:16:29.782Z,33.05
2023-01-17T13:19:07.717Z,30.88
2023-01-17T13:21:35.560Z,28.25
2023-01-17T13:24:36.500Z,27.48
2023-01-17T13:27:23.708Z,25.90
2023-01-17T13:30:18.169Z,25.08
2023-01-17T13:32:46.381Z,19.03
2023-01-17T13:35:27.251Z,24.60
2023-01-17T13:38:15.281Z,21.48
2023-01-17T13:40:49.765Z,25.17
2023-01-17T13:43:30.388Z,23.00
2023-01-17T13:46:03.743Z,24.38
2023-01-17T13:48:33.397Z,24.67
2023-01-17T13:51:04.043Z,23.23
2023-01-17T13:53:34.913Z,23.38
2023-01-17T13:56:11.010Z,22.85
2023-01-17T13:58:58.657Z,23.52
2023-01-17T14:01:38.680Z,20.88
2023-01-17T14:04:13.556Z,20.60
2023-01-17T14:06:49.209Z,20.63
2023-01-17T14:09:17.463Z,22.00
2023-01-17T14:11:57.735Z,21.85
2023-01-17T14:14:42.651Z,21.20
2023-01-17T14:17:33.012Z,21.88
2023-01-17T14:20:17.505Z,20.60
2023-01-17T14:22:54.401Z,16.45
2023-01-17T14:25:28.937Z,20.38
2023-01-17T14:28:01.564Z,23.27
2023-01-17T14:30:37.843Z,24.00
2023-01-17T14:33:09.943Z,32.60
2023-01-17T14:35:51.529Z,30.50
2023-01-17T14:38:23.806Z,34.50
2023-01-17T14:40:58.429Z,32.83
2023-01-17T14:43:28.736Z,38.80
2023-01-17T14:46:00.849Z,38.97
2023-01-17T14:48:31.141Z,29.35
2023-01-17T14:51:01.076Z,34.20
2023-01-17T14:53:31.630Z,33.10
2023-01-17T14:56:00.618Z,33.70
2023-01-17T14:58:31.471Z,37.58
2023-01-17T15:01:18.212Z,36.45
2023-01-17T15:03:47.193Z,36.92
2023-01-17T15:06:19.417Z,39.63
2023-01-17T15:08:48.502Z,38.83
2023-01-17T15:11:22.653Z,35.83
2023-01-17T15:16:25.714Z,32.42
2023-01-17T15:18:56.178Z,32.15
2023-01-17T15:21:27.379Z,33.90
2023-01-17T15:23:58.755Z,29.98
2023-01-17T15:26:33.237Z,33.55
2023-01-17T15:29:06.671Z,34.38
2023-01-17T15:31:51.132Z,29.67
2023-01-17T15:34:25.827Z,27.85
2023-01-17T15:36:58.684Z,30.35
2023-01-17T15:39:34.039Z,25.48
2023-01-17T15:42:05.630Z,23.80
2023-01-17T15:44:48.226Z,26.63
2023-01-17T15:47:33.942Z,24.65
2023-01-17T15:52:29.998Z,22.08
2023-01-17T15:55:10.818Z,23.65
2023-01-17T15:57:44.961Z,24.90
2023-01-17T16:00:15.689Z,25.02
2023-01-17T16:02:45.800Z,25.25
2023-01-17T16:05:33.762Z,23.75
2023-01-17T16:08:02.480Z,23.73
2023-01-17T16:10:32.701Z,26.80
2023-01-17T16:13:00.689Z,27.70
2023-01-17T16:15:29.287Z,29.15
2023-01-17T16:18:06.987Z,24.45
2023-01-17T16:20:41.249Z,25.67
2023-01-17T16:23:11.969Z,24.63
2023-01-17T16:25:40.440Z,28.75
2023-01-17T16:28:08.093Z,26.13
2023-01-17T16:30:36.015Z,25.35
2023-01-17T16:33:04.078Z,25.48
2023-01-17T16:35:34.568Z,25.85
2023-01-17T16:38:05.396Z,28.33
2023-01-17T16:40:40.482Z,33.22
2023-01-17T16:43:08.059Z,26.60
2023-01-17T16:45:42.628Z,28.60
2023-01-17T16:50:48.200Z,29.48
2023-01-17T16:53:17.277Z,28.63
2023-01-17T16:55:45.713Z,30.30
2023-01-17T16:58:12.909Z,26.33
2023-01-17T17:00:41.529Z,29.67
2023-01-17T17:03:16.102Z,27.58
2023-01-17T17:05:46.000Z,29.60
2023-01-17T17:08:14.920Z,28.55
2023-01-17T17:10:42.405Z,28.20
2023-01-17T17:13:09.878Z,24.67
2023-01-17T17:15:42.261Z,29.35
2023-01-17T17:18:15.346Z,26.63
2023-01-17T17:20:43.824Z,26.60
2023-01-17T17:23:11.618Z,32.45
2023-01-17T17:25:39.445Z,30.33
2023-01-17T17:28:07.247Z,29.73
2023-01-17T17:30:36.246Z,27.35
2023-01-17T17:33:05.596Z,29.63
2023-01-17T17:35:35.907Z,25.05
2023-01-17T17:38:05.792Z,26.48
2023-01-17T17:40:36.104Z,27.42
2023-01-17T17:43:03.542Z,27.77
2023-01-17T17:45:32.011Z,25.85
2023-01-17T17:47:59.539Z,22.80
2023-01-17T17:50:27.103Z,23.38
2023-01-17T17:52:54.721Z,24.77
2023-01-17T17:55:22.160Z,24.00
2023-01-17T17:57:49.983Z,25.55
2023-01-17T18:00:17.962Z,24.73
2023-01-17T18:02:46.193Z,22.55
2023-01-17T18:05:13.415Z,23.70
2023-01-17T18:07:42.121Z,22.42
2023-01-17T18:10:10.125Z,20.85
2023-01-17T18:12:37.547Z,20.15
2023-01-17T18:15:06.138Z,21.42
2023-01-17T18:17:33.539Z,21.27
2023-01-17T18:20:02.327Z,21.05
2023-01-17T18:22:29.848Z,21.63
2023-01-17T18:24:57.385Z,20.90
2023-01-17T18:27:25.109Z,21.25
2023-01-17T18:29:52.667Z,23.35
2023-01-17T18:32:21.000Z,22.92
2023-01-17T18:34:48.376Z,26.65
2023-01-17T18:37:16.510Z,23.50
2023-01-17T18:39:45.137Z,21.90
2023-01-17T18:42:12.366Z,23.42
2023-01-17T18:44:39.668Z,21.88
2023-01-17T18:47:07.121Z,20.92
2023-01-17T18:49:35.550Z,22.52
2023-01-17T18:52:03.070Z,24.90
2023-01-17T18:54:32.094Z,22.27
2023-01-17T18:56:59.948Z,23.52
2023-01-17T18:59:27.230Z,24.70
2023-01-17T19:01:55.095Z,26.15
2023-01-17T19:04:22.750Z,21.70
2023-01-17T19:06:50.399Z,21.52
2023-01-17T19:09:17.848Z,20.83
2023-01-17T19:11:47.574Z,22.10
2023-01-17T19:14:16.047Z,21.17
2023-01-17T19:16:43.929Z,20.60
2023-01-17T19:19:16.126Z,21.50
2023-01-17T19:21:44.466Z,20.83
2023-01-17T19:24:13.511Z,20.17
2023-01-17T19:26:41.874Z,20.88
2023-01-17T19:29:10.439Z,18.33
2023-01-17T19:31:42.965Z,21.52
2023-01-17T19:34:13.964Z,19.52
2023-01-17T19:36:42.330Z,22.88
2023-01-17T19:39:10.116Z,19.67
2023-01-17T19:41:42.828Z,20.52
2023-01-17T19:44:12.043Z,20.67
2023-01-17T19:46:39.729Z,21.15
2023-01-17T19:49:08.820Z,19.83
2023-01-17T19:51:37.353Z,19.83
2023-01-17T19:54:06.691Z,19.55
2023-01-17T19:56:34.523Z,20.02
2023-01-17T19:59:02.676Z,21.33
2023-01-17T20:01:33.026Z,20.25
2023-01-17T20:04:02.577Z,20.23
2023-01-17T20:06:33.513Z,21.70
2023-01-17T20:09:01.704Z,20.58
2023-01-17T20:11:29.413Z,20.95
2023-01-17T20:13:58.385Z,18.27
2023-01-17T20:16:27.836Z,20.65
2023-01-17T20:18:55.491Z,21.50
2023-01-17T20:21:24.963Z,20.80
2023-01-17T20:23:54.746Z,24.25
2023-01-17T20:26:29.350Z,21.85
2023-01-17T20:31:26.191Z,24.20
2023-01-17T20:33:55.381Z,22.60
2023-01-17T20:36:25.572Z,21.75
2023-01-17T20:38:54.975Z,21.00
2023-01-17T20:41:31.570Z,19.13
2023-01-17T20:44:01.267Z,20.73
2023-01-17T20:46:33.475Z,19.85
2023-01-17T20:49:01.851Z,22.95
2023-01-17T20:51:30.030Z,21.90
2023-01-17T20:54:00.513Z,19.95
2023-01-17T20:56:30.509Z,20.30
2023-01-17T20:58:58.027Z,20.33
2023-01-17T21:01:25.592Z,21.55
2023-01-17T21:03:54.090Z,20.85
2023-01-17T21:06:23.120Z,20.92
2023-01-17T21:08:50.957Z,26.67
2023-01-17T21:11:22.329Z,23.65
2023-01-17T21:13:51.586Z,22.85
2023-01-17T21:16:22.674Z,23.25
2023-01-17T21:18:52.187Z,22.00
2023-01-17T21:21:23.717Z,22.10
2023-01-17T21:23:53.549Z,26.10
2023-01-17T21:26:22.953Z,23.65
2023-01-17T21:28:51.062Z,25.10
2023-01-17T21:31:29.382Z,23.38
2023-01-17T21:33:57.791Z,23.95
2023-01-17T21:36:29.437Z,23.65
2023-01-17T21:38:58.751Z,24.45
2023-01-17T21:41:28.989Z,26.02
2023-01-17T21:43:59.396Z,28.77
2023-01-17T21:46:27.854Z,23.30
2023-01-17T21:48:56.907Z,23.08
2023-01-17T21:51:25.069Z,25.08
2023-01-17T21:53:52.509Z,23.83
2023-01-17T21:56:39.653Z,26.20
2023-01-17T21:59:07.263Z,28.00
2023-01-17T22:01:34.490Z,26.30
2023-01-17T22:04:03.602Z,27.55
2023-01-17T22:06:34.676Z,26.55
2023-01-17T22:09:06.322Z,27.88
2023-01-17T22:11:36.892Z,26.88
2023-01-17T22:14:05.223Z,27.40
2023-01-17T22:16:32.924Z,27.55
2023-01-17T22:19:00.712Z,25.08
2023-01-17T22:21:29.121Z,26.27
2023-01-17T22:23:59.387Z,27.90
2023-01-17T22:26:30.448Z,27.00
2023-01-17T22:29:02.446Z,28.10
2023-01-17T22:31:30.696Z,24.83
2023-01-17T22:34:02.943Z,26.20
2023-01-17T22:36:33.686Z,27.30
2023-01-17T22:39:02.392Z,27.50
2023-01-17T22:41:31.492Z,29.88
2023-01-17T22:44:02.319Z,26.48
2023-01-17T22:46:32.606Z,28.02
2023-01-17T22:49:00.620Z,29.02
2023-01-17T22:51:29.259Z,29.52
2023-01-17T22:53:59.239Z,27.58
2023-01-17T22:56:29.398Z,27.27
2023-01-17T22:58:57.610Z,27.75
2023-01-17T23:01:28.699Z,26.63
2023-01-17T23:04:00.153Z,28.40
2023-01-17T23:06:31.154Z,31.73
2023-01-17T23:09:01.748Z,31.75
2023-01-17T23:11:41.340Z,28.80
2023-01-17T23:14:30.060Z,31.33
2023-01-17T23:17:21.461Z,26.85
2023-01-17T23:19:52.555Z,30.30
2023-01-17T23:22:24.632Z,29.73
2023-01-17T23:24:54.010Z,28.45
2023-01-17T23:27:44.950Z,28.20
2023-01-17T23:30:18.116Z,27.65
2023-01-17T23:32:51.624Z,27.73
2023-01-17T23:35:21.514Z,29.65
2023-01-17T23:38:09.062Z,32.35
2023-01-17T23:40:38.131Z,29.60
2023-01-17T23:43:26.693Z,29.38
2023-01-17T23:45:54.876Z,28.20
2023-01-17T23:48:26.101Z,28.15
2023-01-17T23:50:59.690Z,29.50
2023-01-17T23:53:27.579Z,27.75
2023-01-17T23:55:57.923Z,29.70
2023-01-17T23:58:28.050Z,29.50
